createdAt,value
2018-08-08T00:00:16.744Z,95102.00
2018-08-08T00:02:45.880Z,95101.00
2018-08-08T00:05:14.932Z,95092.00
2018-08-08T00:07:44.094Z,95092.00
2018-08-08T00:10:13.193Z,95097.00
2018-08-08T00:12:42.421Z,95091.00
2018-08-08T00:15:13.292Z,95079.00
2018-08-08T00:17:44.189Z,95068.00
2018-08-08T00:20:13.348Z,95073.00
2018-08-08T00:22:42.402Z,95069.00
2018-08-08T00:25:13.374Z,95075.00
2018-08-08T00:27:42.781Z,95076.00
2018-08-08T00:30:12.899Z,95071.00
2018-08-08T00:32:42.014Z,95068.00
2018-08-08T00:35:11.022Z,95052.00
2018-08-08T00:37:40.049Z,95057.00
2018-08-08T00:40:12.121Z,95057.00
2018-08-08T00:42:41.737Z,95053.00
2018-08-08T00:45:13.245Z,95052.00
2018-08-08T00:47:43.242Z,95048.00
2018-08-08T00:50:13.590Z,95040.00
2018-08-08T00:52:43.006Z,95039.00
2018-08-08T00:55:12.187Z,95034.00
2018-08-08T00:57:41.343Z,95034.00
2018-08-08T01:00:13.862Z,95037.00
2018-08-08T01:02:42.996Z,95039.00
2018-08-08T01:05:13.147Z,95033.00
2018-08-08T01:07:42.953Z,95030.00
2018-08-08T01:10:12.083Z,95036.00
2018-08-08T01:12:41.164Z,95040.00
2018-08-08T01:15:12.125Z,95037.00
2018-08-08T01:17:41.253Z,95037.00
2018-08-08T01:20:13.593Z,95048.00
2018-08-08T01:22:42.572Z,95035.00
2018-08-08T01:25:13.926Z,95032.00
2018-08-08T01:27:43.205Z,95040.00
2018-08-08T01:30:17.463Z,95045.00
2018-08-08T01:32:46.509Z,95032.00
2018-08-08T01:35:15.506Z,95036.00
2018-08-08T01:37:44.534Z,95033.00
2018-08-08T01:40:16.146Z,95033.00
2018-08-08T01:42:45.282Z,95042.00
2018-08-08T01:45:15.629Z,95039.00
2018-08-08T01:47:44.645Z,95037.00
2018-08-08T01:50:15.028Z,95040.00
2018-08-08T01:52:44.089Z,95038.00
2018-08-08T01:55:13.905Z,95041.00
2018-08-08T01:57:42.966Z,95047.00
2018-08-08T02:00:14.265Z,95042.00
2018-08-08T02:02:43.270Z,95034.00
2018-08-08T02:05:12.470Z,95033.00
2018-08-08T02:07:41.915Z,95037.00
2018-08-08T02:10:16.185Z,95030.00
2018-08-08T02:12:45.208Z,95031.00
2018-08-08T02:15:14.290Z,95033.00
2018-08-08T02:17:43.338Z,95031.00
2018-08-08T02:20:12.765Z,95037.00
2018-08-08T02:22:42.433Z,95037.00
2018-08-08T02:25:13.118Z,95029.00
2018-08-08T02:27:42.124Z,95030.00
2018-08-08T02:30:15.433Z,95031.00
2018-08-08T02:32:44.926Z,95029.00
2018-08-08T02:35:13.950Z,95033.00
2018-08-08T02:37:43.058Z,95032.00
2018-08-08T02:40:12.486Z,95031.00
2018-08-08T02:42:41.986Z,95030.00
2018-08-08T02:45:16.079Z,95032.00
2018-08-08T02:47:45.416Z,95038.00
2018-08-08T02:50:18.286Z,95035.00
2018-08-08T02:52:47.406Z,95033.00
2018-08-08T02:55:16.467Z,95025.00
2018-08-08T02:57:45.581Z,95028.00
2018-08-08T03:00:17.827Z,95033.00
2018-08-08T03:02:46.982Z,95043.00
2018-08-08T03:05:16.039Z,95044.00
2018-08-08T03:07:45.505Z,95056.00
2018-08-08T03:10:16.303Z,95053.00
2018-08-08T03:12:45.382Z,95052.00
2018-08-08T03:15:16.446Z,95062.00
2018-08-08T03:17:45.582Z,95062.00
2018-08-08T03:20:15.425Z,95070.00
2018-08-08T03:22:45.617Z,95073.00
2018-08-08T03:25:15.738Z,95078.00
2018-08-08T03:27:45.538Z,95079.00
2018-08-08T03:30:19.814Z,95077.00
2018-08-08T03:32:48.829Z,95075.00
2018-08-08T03:35:18.333Z,95074.00
2018-08-08T03:37:47.369Z,95081.00
2018-08-08T03:40:17.489Z,95083.00
2018-08-08T03:42:46.659Z,95083.00
2018-08-08T03:45:16.784Z,95058.00
2018-08-08T03:47:45.794Z,95083.00
2018-08-08T03:50:14.815Z,95083.00
2018-08-08T03:52:44.823Z,95091.00
2018-08-08T03:55:13.880Z,95091.00
2018-08-08T03:57:43.037Z,95095.00
2018-08-08T04:00:18.107Z,95096.00
2018-08-08T04:02:47.403Z,95101.00
2018-08-08T04:05:16.354Z,95108.00
2018-08-08T04:07:45.701Z,95106.00
2018-08-08T04:10:15.660Z,95107.00
2018-08-08T04:12:44.681Z,95109.00
2018-08-08T04:15:16.239Z,95118.00
2018-08-08T04:17:45.372Z,95118.00
2018-08-08T04:20:14.399Z,95126.00
2018-08-08T04:22:43.434Z,95120.00
2018-08-08T04:25:14.060Z,95117.00
2018-08-08T04:27:43.403Z,95116.00
2018-08-08T04:30:15.039Z,95126.00
2018-08-08T04:32:44.150Z,95135.00
2018-08-08T04:35:13.169Z,95131.00
2018-08-08T04:37:42.375Z,95141.00
2018-08-08T04:40:14.820Z,95137.00
2018-08-08T04:42:45.014Z,95144.00
2018-08-08T04:45:14.586Z,95137.00
2018-08-08T04:47:44.286Z,95128.00
2018-08-08T04:50:13.330Z,95136.00
2018-08-08T04:52:42.862Z,95136.00
2018-08-08T04:55:13.777Z,95132.00
2018-08-08T04:57:42.798Z,95137.00
2018-08-08T05:00:14.924Z,95131.00
2018-08-08T05:02:43.990Z,95143.00
2018-08-08T05:05:13.009Z,95132.00
2018-08-08T05:07:42.182Z,95144.00
2018-08-08T05:10:12.374Z,95149.00
2018-08-08T05:12:41.961Z,95138.00
2018-08-08T05:15:14.165Z,95138.00
2018-08-08T05:17:43.546Z,95142.00
2018-08-08T05:20:13.652Z,95151.00
2018-08-08T05:22:42.712Z,95144.00
2018-08-08T05:25:11.723Z,95150.00
2018-08-08T05:27:40.725Z,95158.00
2018-08-08T05:30:16.566Z,95158.00
2018-08-08T05:32:45.614Z,95152.00
2018-08-08T05:35:16.248Z,95162.00
2018-08-08T05:37:45.317Z,95169.00
2018-08-08T05:40:19.045Z,95169.00
2018-08-08T05:42:48.981Z,95175.00
2018-08-08T05:45:17.990Z,95178.00
2018-08-08T05:47:48.387Z,95173.00
2018-08-08T05:50:17.534Z,95183.00
2018-08-08T05:52:46.529Z,95191.00
2018-08-08T05:55:16.961Z,95193.00
2018-08-08T05:57:46.501Z,95198.00
2018-08-08T06:00:27.438Z,95214.00
2018-08-08T06:02:56.437Z,95211.00
2018-08-08T06:05:25.522Z,95223.00
2018-08-08T06:07:55.510Z,95222.00
2018-08-08T06:10:24.509Z,95235.00
2018-08-08T06:12:53.590Z,95226.00
2018-08-08T06:15:22.598Z,95241.00
2018-08-08T06:17:51.600Z,95258.00
2018-08-08T06:20:21.769Z,95255.00
2018-08-08T06:22:51.122Z,95258.00
2018-08-08T06:25:20.347Z,95263.00
2018-08-08T06:27:49.325Z,95263.00
2018-08-08T06:30:23.142Z,95263.00
2018-08-08T06:32:52.857Z,95276.00
2018-08-08T06:35:24.549Z,95274.00
2018-08-08T06:37:54.048Z,95272.00
2018-08-08T06:40:23.078Z,95276.00
2018-08-08T06:42:52.155Z,95282.00
2018-08-08T06:45:24.910Z,95280.00
2018-08-08T06:47:53.949Z,95282.00
2018-08-08T06:50:22.959Z,95291.00
2018-08-08T06:52:51.990Z,95290.00
2018-08-08T06:55:21.013Z,95293.00
2018-08-08T06:57:49.989Z,95296.00
2018-08-08T07:00:22.039Z,95309.00
2018-08-08T07:02:51.025Z,95315.00
2018-08-08T07:05:20.182Z,95316.00
2018-08-08T07:07:49.833Z,95315.00
2018-08-08T07:10:18.838Z,95329.00
2018-08-08T07:12:47.838Z,95324.00
2018-08-08T07:15:17.881Z,95331.00
2018-08-08T07:17:46.937Z,95321.00
2018-08-08T07:20:17.098Z,95323.00
2018-08-08T07:22:46.090Z,95333.00
2018-08-08T07:25:16.710Z,95335.00
2018-08-08T07:27:45.883Z,95342.00
2018-08-08T07:30:16.575Z,95350.00
2018-08-08T07:32:45.647Z,95348.00
2018-08-08T07:35:14.885Z,95350.00
2018-08-08T07:37:45.459Z,95354.00
2018-08-08T07:40:16.463Z,95356.00
2018-08-08T07:42:45.437Z,95367.00
2018-08-08T07:45:22.860Z,95360.00
2018-08-08T07:47:51.962Z,95371.00
2018-08-08T07:50:21.023Z,95367.00
2018-08-08T07:52:50.046Z,95375.00
2018-08-08T07:55:20.621Z,95383.00
2018-08-08T07:57:49.754Z,95377.00
2018-08-08T08:00:25.506Z,95383.00
2018-08-08T08:02:55.355Z,95393.00
2018-08-08T08:05:24.485Z,95383.00
2018-08-08T08:07:53.853Z,95388.00
2018-08-08T08:10:22.889Z,95392.00
2018-08-08T08:12:51.931Z,95403.00
2018-08-08T08:15:20.991Z,95406.00
2018-08-08T08:17:49.978Z,95413.00
2018-08-08T08:20:19.625Z,95420.00
2018-08-08T08:22:49.665Z,95415.00
2018-08-08T08:25:18.678Z,95424.00
2018-08-08T08:27:47.685Z,95419.00
2018-08-08T08:30:17.905Z,95416.00
2018-08-08T08:32:47.238Z,95420.00
2018-08-08T08:35:16.228Z,95422.00
2018-08-08T08:37:45.222Z,95426.00
2018-08-08T08:40:14.530Z,95432.00
2018-08-08T08:42:43.979Z,95463.00
2018-08-08T08:45:12.989Z,95461.00
2018-08-08T08:47:41.974Z,95441.00
2018-08-08T08:50:11.065Z,95450.00
2018-08-08T08:52:40.083Z,95461.00
2018-08-08T08:55:09.254Z,95460.00
2018-08-08T08:57:38.282Z,95466.00
2018-08-08T09:00:10.321Z,95461.00
2018-08-08T09:02:39.387Z,95468.00
2018-08-08T09:05:09.378Z,95475.00
2018-08-08T09:07:38.414Z,95475.00
2018-08-08T09:10:08.668Z,95496.00
2018-08-08T09:12:37.995Z,95454.00
2018-08-08T09:15:08.905Z,95475.00
2018-08-08T09:17:37.874Z,95471.00
2018-08-08T09:20:07.009Z,95470.00
2018-08-08T09:22:36.664Z,95464.00
2018-08-08T09:25:05.859Z,95472.00
2018-08-08T09:27:34.841Z,95463.00
2018-08-08T09:30:09.103Z,95479.00
2018-08-08T09:32:39.490Z,95472.00
2018-08-08T09:35:08.684Z,95473.00
2018-08-08T09:37:38.141Z,95485.00
2018-08-08T09:40:07.954Z,95474.00
2018-08-08T09:42:37.081Z,95477.00
2018-08-08T09:45:07.366Z,95474.00
2018-08-08T09:47:36.668Z,95453.00
2018-08-08T09:50:06.424Z,95451.00
2018-08-08T09:52:35.421Z,95454.00
2018-08-08T09:55:04.482Z,95452.00
2018-08-08T09:57:33.494Z,95454.00
2018-08-08T10:00:02.480Z,95445.00
2018-08-08T10:02:36.407Z,95446.00
2018-08-08T10:05:07.145Z,95449.00
2018-08-08T10:07:36.142Z,95450.00
2018-08-08T10:10:05.270Z,95444.00
2018-08-08T10:12:34.270Z,95453.00
2018-08-08T10:15:03.275Z,95460.00
2018-08-08T10:17:32.280Z,95462.00
2018-08-08T10:20:01.266Z,95463.00
2018-08-08T10:22:30.258Z,95459.00
2018-08-08T10:24:59.225Z,95454.00
2018-08-08T10:27:28.226Z,95458.00
2018-08-08T10:29:57.209Z,95463.00
2018-08-08T10:32:26.224Z,95460.00
2018-08-08T10:34:55.323Z,95449.00
2018-08-08T10:37:24.334Z,95454.00
2018-08-08T10:39:53.325Z,95447.00
2018-08-08T10:42:22.350Z,95443.00
2018-08-08T10:44:51.375Z,95435.00
2018-08-08T10:47:20.393Z,95430.00
2018-08-08T10:49:49.393Z,95437.00
2018-08-08T10:52:18.394Z,95438.00
2018-08-08T10:54:47.382Z,95432.00
2018-08-08T10:57:16.482Z,95427.00
2018-08-08T10:59:45.626Z,95426.00
2018-08-08T11:02:14.495Z,95425.00
2018-08-08T11:04:43.510Z,95434.00
2018-08-08T11:07:12.814Z,95430.00
2018-08-08T11:09:41.974Z,95430.00
2018-08-08T11:12:10.987Z,95433.00
2018-08-08T11:14:40.134Z,95434.00
2018-08-08T11:17:09.131Z,95428.00
2018-08-08T11:19:38.129Z,95425.00
2018-08-08T11:22:07.134Z,95424.00
2018-08-08T11:24:36.149Z,95434.00
2018-08-08T11:27:05.166Z,95434.00
2018-08-08T11:29:34.166Z,95436.00
2018-08-08T11:32:03.185Z,95432.00
2018-08-08T11:34:32.181Z,95427.00
2018-08-08T11:37:01.223Z,95425.00
2018-08-08T11:39:30.217Z,95424.00
2018-08-08T11:41:59.218Z,95419.00
2018-08-08T11:44:28.211Z,95422.00
2018-08-08T11:46:57.251Z,95405.00
2018-08-08T11:49:26.210Z,95413.00
2018-08-08T11:51:55.202Z,95419.00
2018-08-08T11:54:24.198Z,95410.00
2018-08-08T11:56:53.186Z,95413.00
2018-08-08T11:59:22.178Z,95406.00
2018-08-08T12:01:51.230Z,95408.00
2018-08-08T12:04:20.161Z,95407.00
2018-08-08T12:06:49.144Z,95403.00
2018-08-08T12:09:18.143Z,95404.00
2018-08-08T12:11:47.114Z,95400.00
2018-08-08T12:14:16.103Z,95407.00
2018-08-08T12:16:45.094Z,95402.00
2018-08-08T12:19:14.082Z,95403.00
2018-08-08T12:21:43.114Z,95400.00
2018-08-08T12:24:12.102Z,95391.00
2018-08-08T12:26:41.098Z,95392.00
2018-08-08T12:29:10.102Z,95383.00
2018-08-08T12:31:39.091Z,95383.00
2018-08-08T12:34:08.098Z,95373.00
2018-08-08T12:36:37.102Z,95375.00
2018-08-08T12:39:09.192Z,95365.00
2018-08-08T12:41:38.165Z,95356.00
2018-08-08T12:44:07.186Z,95349.00
2018-08-08T12:46:36.157Z,95358.00
2018-08-08T12:49:05.138Z,95351.00
2018-08-08T12:51:34.121Z,95363.00
2018-08-08T12:54:03.118Z,95357.00
2018-08-08T12:56:32.125Z,95346.00
2018-08-08T12:59:01.159Z,95347.00
2018-08-08T13:01:30.138Z,95343.00
2018-08-08T13:03:59.143Z,95338.00
2018-08-08T13:06:28.134Z,95338.00
2018-08-08T13:08:57.511Z,95330.00
2018-08-08T13:11:26.510Z,95340.00
2018-08-08T13:13:55.564Z,95337.00
2018-08-08T13:16:24.510Z,95330.00
2018-08-08T13:18:53.541Z,95335.00
2018-08-08T13:21:22.534Z,95333.00
2018-08-08T13:23:51.610Z,95325.00
2018-08-08T13:26:20.542Z,95322.00
2018-08-08T13:28:49.674Z,95321.00
2018-08-08T13:31:18.687Z,95318.00
2018-08-08T13:33:47.799Z,95332.00
2018-08-08T13:36:16.893Z,95325.00
2018-08-08T13:38:45.940Z,95318.00
2018-08-08T13:41:14.922Z,95329.00
2018-08-08T13:43:43.914Z,95327.00
2018-08-08T13:46:12.934Z,95331.00
2018-08-08T13:48:41.973Z,95331.00
2018-08-08T13:51:10.977Z,95324.00
2018-08-08T13:53:39.977Z,95315.00
2018-08-08T13:56:09.102Z,95315.00
2018-08-08T13:58:38.150Z,95303.00
2018-08-08T14:01:07.147Z,95308.00
2018-08-08T14:03:36.190Z,95300.00
2018-08-08T14:06:05.139Z,95306.00
2018-08-08T14:08:34.146Z,95299.00
2018-08-08T14:11:03.298Z,95294.00
2018-08-08T14:13:32.282Z,95297.00
2018-08-08T14:16:01.296Z,95303.00
2018-08-08T14:18:30.572Z,95295.00
2018-08-08T14:20:59.586Z,95296.00
2018-08-08T14:23:28.561Z,95293.00
2018-08-08T14:25:57.569Z,95290.00
2018-08-08T14:28:27.614Z,95288.00
2018-08-08T14:30:56.610Z,95293.00
2018-08-08T14:33:25.604Z,95291.00
2018-08-08T14:35:54.644Z,95288.00
2018-08-08T14:38:25.867Z,95280.00
2018-08-08T14:40:56.498Z,95272.00
2018-08-08T14:43:25.509Z,95282.00
2018-08-08T14:45:55.148Z,95281.00
2018-08-08T14:48:24.158Z,95280.00
2018-08-08T14:50:55.037Z,95277.00
2018-08-08T14:53:23.957Z,95275.00
2018-08-08T14:55:53.000Z,95278.00
2018-08-08T14:58:24.602Z,95270.00
2018-08-08T15:00:55.126Z,95270.00
2018-08-08T15:03:24.926Z,95273.00
2018-08-08T15:05:54.700Z,95273.00
2018-08-08T15:08:26.369Z,95262.00
2018-08-08T15:10:56.467Z,95267.00
2018-08-08T15:13:27.981Z,95260.00
2018-08-08T15:15:57.173Z,95267.00
2018-08-08T15:18:26.999Z,95266.00
2018-08-08T15:20:56.241Z,95253.00
2018-08-08T15:23:25.251Z,95252.00
2018-08-08T15:26:01.840Z,95250.00
2018-08-08T15:28:30.829Z,95257.00
2018-08-08T15:31:02.173Z,95252.00
2018-08-08T15:33:31.723Z,95257.00
2018-08-08T15:36:00.734Z,95260.00
2018-08-08T15:38:29.745Z,95263.00
2018-08-08T15:40:59.862Z,95261.00
2018-08-08T15:43:30.410Z,95260.00
2018-08-08T15:46:00.562Z,95256.00
2018-08-08T15:48:30.638Z,95268.00
2018-08-08T15:51:00.322Z,95268.00
2018-08-08T15:53:30.733Z,95276.00
2018-08-08T15:56:01.390Z,95278.00
2018-08-08T15:58:30.419Z,95287.00
2018-08-08T16:00:59.449Z,95290.00
2018-08-08T16:03:28.445Z,95291.00
2018-08-08T16:05:57.482Z,95283.00
2018-08-08T16:08:26.506Z,95289.00
2018-08-08T16:10:55.493Z,95289.00
2018-08-08T16:13:25.321Z,95302.00
2018-08-08T16:15:55.537Z,95293.00
2018-08-08T16:18:24.994Z,95293.00
2018-08-08T16:20:53.998Z,95293.00
2018-08-08T16:23:22.998Z,95292.00
2018-08-08T16:25:51.994Z,95288.00
2018-08-08T16:28:23.503Z,95294.00
2018-08-08T16:30:52.510Z,95299.00
2018-08-08T16:33:26.004Z,95291.00
2018-08-08T16:36:00.911Z,95294.00
2018-08-08T16:38:29.933Z,95294.00
2018-08-08T16:40:58.922Z,95292.00
2018-08-08T16:43:28.319Z,95293.00
2018-08-08T16:45:57.495Z,95284.00
2018-08-08T16:48:26.497Z,95290.00
2018-08-08T16:50:55.517Z,95290.00
2018-08-08T16:53:25.062Z,95293.00
2018-08-08T16:55:54.050Z,95293.00
2018-08-08T16:58:23.178Z,95294.00
2018-08-08T17:00:52.212Z,95298.00
2018-08-08T17:03:21.371Z,95305.00
2018-08-08T17:05:50.416Z,95300.00
2018-08-08T17:08:19.403Z,95300.00
2018-08-08T17:10:49.111Z,95302.00
2018-08-08T17:13:19.875Z,95300.00
2018-08-08T17:15:49.362Z,95306.00
2018-08-08T17:18:18.359Z,95304.00
2018-08-08T17:20:48.963Z,95309.00
2018-08-08T17:23:17.984Z,95296.00
2018-08-08T17:25:47.002Z,95302.00
2018-08-08T17:28:16.009Z,95303.00
2018-08-08T17:30:45.024Z,95300.00
2018-08-08T17:33:14.152Z,95294.00
2018-08-08T17:35:43.150Z,95297.00
2018-08-08T17:38:12.163Z,95298.00
2018-08-08T17:40:41.148Z,95292.00
2018-08-08T17:43:10.254Z,95288.00
2018-08-08T17:45:39.189Z,95287.00
2018-08-08T17:48:08.194Z,95281.00
2018-08-08T17:50:37.498Z,95293.00
2018-08-08T17:53:06.497Z,95284.00
2018-08-08T17:55:35.625Z,95288.00
2018-08-08T17:58:04.635Z,95287.00
2018-08-08T18:00:33.633Z,95275.00
2018-08-08T18:03:02.619Z,95282.00
2018-08-08T18:05:31.618Z,95288.00
2018-08-08T18:08:00.630Z,95289.00
2018-08-08T18:10:29.701Z,95290.00
2018-08-08T18:12:58.701Z,95295.00
2018-08-08T18:15:27.699Z,95293.00
2018-08-08T18:17:56.726Z,95293.00
2018-08-08T18:20:25.714Z,95298.00
2018-08-08T18:22:54.736Z,95296.00
2018-08-08T18:25:23.798Z,95296.00
2018-08-08T18:27:52.992Z,95301.00
2018-08-08T18:30:21.981Z,95296.00
2018-08-08T18:32:51.014Z,95301.00
2018-08-08T18:35:20.038Z,95305.00
2018-08-08T18:37:49.049Z,95299.00
2018-08-08T18:40:18.090Z,95300.00
2018-08-08T18:42:47.090Z,95304.00
2018-08-08T18:45:17.246Z,95304.00
2018-08-08T18:47:46.360Z,95313.00
2018-08-08T18:50:15.654Z,95313.00
2018-08-08T18:52:44.645Z,95312.00
2018-08-08T18:55:13.823Z,95311.00
2018-08-08T18:57:42.834Z,95320.00
2018-08-08T19:00:12.348Z,95327.00
2018-08-08T19:02:41.384Z,95329.00
2018-08-08T19:05:10.487Z,95335.00
2018-08-08T19:07:39.492Z,95342.00
2018-08-08T19:10:08.501Z,95339.00
2018-08-08T19:12:38.182Z,95347.00
2018-08-08T19:15:07.573Z,95358.00
2018-08-08T19:17:36.573Z,95363.00
2018-08-08T19:20:05.945Z,95365.00
2018-08-08T19:22:34.942Z,95369.00
2018-08-08T19:25:16.067Z,95374.00
2018-08-08T19:27:45.028Z,95379.00
2018-08-08T19:30:14.126Z,95387.00
2018-08-08T19:32:43.143Z,95392.00
2018-08-08T19:35:12.167Z,95395.00
2018-08-08T19:37:41.158Z,95397.00
2018-08-08T19:40:10.266Z,95402.00
2018-08-08T19:42:39.386Z,95394.00
2018-08-08T19:45:08.382Z,95405.00
2018-08-08T19:47:39.319Z,95399.00
2018-08-08T19:50:08.432Z,95411.00
2018-08-08T19:52:37.447Z,95411.00
2018-08-08T19:55:06.922Z,95419.00
2018-08-08T19:57:36.258Z,95420.00
2018-08-08T20:00:05.542Z,95424.00
2018-08-08T20:02:34.535Z,95437.00
2018-08-08T20:05:03.621Z,95438.00
2018-08-08T20:07:32.738Z,95434.00
2018-08-08T20:10:01.734Z,95440.00
2018-08-08T20:12:30.738Z,95426.00
2018-08-08T20:15:01.094Z,95438.00
2018-08-08T20:17:30.066Z,95442.00
2018-08-08T20:20:01.479Z,95437.00
2018-08-08T20:22:32.394Z,95441.00
2018-08-08T20:25:03.541Z,95437.00
2018-08-08T20:27:33.135Z,95446.00
2018-08-08T20:30:03.194Z,95447.00
2018-08-08T20:32:32.224Z,95451.00
2018-08-08T20:35:01.245Z,95463.00
2018-08-08T20:37:30.249Z,95471.00
2018-08-08T20:39:59.270Z,95474.00
2018-08-08T20:42:28.278Z,95477.00
2018-08-08T20:44:57.287Z,95470.00
2018-08-08T20:47:26.298Z,95479.00
2018-08-08T20:49:55.698Z,95469.00
2018-08-08T20:52:24.726Z,95479.00
2018-08-08T20:54:53.758Z,95473.00
2018-08-08T20:57:22.869Z,95479.00
2018-08-08T20:59:52.039Z,95480.00
2018-08-08T21:02:21.034Z,95474.00
2018-08-08T21:04:50.070Z,95468.00
2018-08-08T21:07:19.058Z,95465.00
2018-08-08T21:09:48.049Z,95476.00
2018-08-08T21:12:17.034Z,95475.00
2018-08-08T21:14:46.033Z,95464.00
2018-08-08T21:17:15.017Z,95464.00
2018-08-08T21:19:44.039Z,95462.00
2018-08-08T21:22:13.068Z,95464.00
2018-08-08T21:24:42.061Z,95466.00
2018-08-08T21:27:11.046Z,95473.00
2018-08-08T21:29:40.085Z,95465.00
2018-08-08T21:32:09.419Z,95478.00
2018-08-08T21:34:38.450Z,95460.00
2018-08-08T21:37:07.449Z,95465.00
2018-08-08T21:39:36.467Z,95474.00
2018-08-08T21:42:05.552Z,95477.00
2018-08-08T21:44:34.568Z,95485.00
2018-08-08T21:47:03.548Z,95481.00
2018-08-08T21:49:32.601Z,95481.00
2018-08-08T21:52:01.717Z,95482.00
2018-08-08T21:54:47.764Z,95475.00
2018-08-08T21:59:39.477Z,95485.00
2018-08-08T22:02:25.485Z,95484.00
2018-08-08T22:05:11.962Z,95488.00
2018-08-08T22:07:58.102Z,95490.00
2018-08-08T22:12:48.186Z,95500.00
2018-08-08T22:17:39.128Z,95506.00
2018-08-08T22:20:08.138Z,95504.00
2018-08-08T22:22:37.121Z,95492.00
2018-08-08T22:25:06.121Z,95491.00
2018-08-08T22:27:35.101Z,95494.00
2018-08-08T22:30:04.599Z,95494.00
2018-08-08T22:32:33.578Z,95484.00
2018-08-08T22:35:02.678Z,95483.00
2018-08-08T22:37:31.674Z,95481.00
2018-08-08T22:40:00.736Z,95481.00
2018-08-08T22:42:29.745Z,95472.00
2018-08-08T22:44:58.838Z,95474.00
2018-08-08T22:47:27.933Z,95470.00
2018-08-08T22:49:56.921Z,95476.00
2018-08-08T22:52:25.910Z,95470.00
2018-08-08T22:54:54.985Z,95466.00
2018-08-08T22:57:23.987Z,95452.00
2018-08-08T22:59:52.962Z,95463.00
2018-08-08T23:02:21.955Z,95451.00
2018-08-08T23:04:50.930Z,95452.00
2018-08-08T23:07:19.934Z,95450.00
2018-08-08T23:09:48.922Z,95448.00
2018-08-08T23:12:17.921Z,95448.00
2018-08-08T23:14:47.266Z,95444.00
2018-08-08T23:17:16.261Z,95450.00
2018-08-08T23:19:45.257Z,95435.00
2018-08-08T23:22:29.969Z,95434.00
2018-08-08T23:24:58.961Z,95426.00
2018-08-08T23:27:27.953Z,95415.00
2018-08-08T23:29:56.931Z,95416.00
2018-08-08T23:32:25.939Z,95407.00
2018-08-08T23:34:54.921Z,95397.00
2018-08-08T23:37:23.922Z,95393.00
2018-08-08T23:39:52.914Z,95380.00
2018-08-08T23:42:22.019Z,95386.00
2018-08-08T23:44:50.998Z,95381.00
2018-08-08T23:47:20.003Z,95372.00
2018-08-08T23:49:48.989Z,95378.00
2018-08-08T23:52:18.000Z,95378.00
2018-08-08T23:54:46.971Z,95374.00
2018-08-08T23:57:15.994Z,95382.00
2018-08-08T23:59:44.974Z,95373.00
